sensor_id;sensor_type;location;lat;lon;timestamp;pressure;altitude;pressure_sealevel;temperature;humidity
63883;BME280;50047;50.596;30.466;2022-09-30T00:01:08;98649.30;;;21.10;54.85
63883;BME280;50047;50.596;30.466;2022-09-30T00:03:35;98648.66;;;20.94;54.94
63883;BME280;50047;50.596;30.466;2022-09-30T00:06:05;98649.08;;;20.78;55.11
63883;BME280;50047;50.596;30.466;2022-09-30T00:08:36;98646.48;;;20.62;55.32
63883;BME280;50047;50.596;30.466;2022-09-30T00:11:10;98640.66;;;20.47;55.39
63883;BME280;50047;50.596;30.466;2022-09-30T00:13:39;98640.30;;;20.67;56.48
63883;BME280;50047;50.596;30.466;2022-09-30T00:16:08;98645.56;;;21.01;56.18
63883;BME280;50047;50.596;30.466;2022-09-30T00:18:37;98650.82;;;21.13;55.71
63883;BME280;50047;50.596;30.466;2022-09-30T00:21:05;98655.52;;;21.16;55.39
63883;BME280;50047;50.596;30.466;2022-09-30T00:23:35;98659.80;;;21.11;55.08
63883;BME280;50047;50.596;30.466;2022-09-30T00:26:10;98661.74;;;20.99;55.21
63883;BME280;50047;50.596;30.466;2022-09-30T00:28:38;98661.69;;;20.88;54.98
63883;BME280;50047;50.596;30.466;2022-09-30T00:31:10;98661.50;;;20.74;55.28
63883;BME280;50047;50.596;30.466;2022-09-30T00:33:38;98664.84;;;20.93;56.14
63883;BME280;50047;50.596;30.466;2022-09-30T00:36:05;98671.75;;;21.29;55.96
63883;BME280;50047;50.596;30.466;2022-09-30T00:38:33;98673.86;;;21.49;55.30
63883;BME280;50047;50.596;30.466;2022-09-30T00:41:01;98671.80;;;21.51;54.79
63883;BME280;50047;50.596;30.466;2022-09-30T00:43:46;98672.05;;;21.38;54.74
63883;BME280;50047;50.596;30.466;2022-09-30T00:46:34;98672.35;;;21.20;54.75
63883;BME280;50047;50.596;30.466;2022-09-30T00:49:22;98675.42;;;21.05;54.89
63883;BME280;50047;50.596;30.466;2022-09-30T00:51:54;98671.84;;;20.82;55.56
63883;BME280;50047;50.596;30.466;2022-09-30T00:54:28;98677.48;;;21.06;56.44
63883;BME280;50047;50.596;30.466;2022-09-30T00:57:01;98675.71;;;21.49;56.01
63883;BME280;50047;50.596;30.466;2022-09-30T00:59:35;98681.63;;;21.62;55.29
63883;BME280;50047;50.596;30.466;2022-09-30T01:02:04;98679.71;;;21.65;54.84
63883;BME280;50047;50.596;30.466;2022-09-30T01:04:33;98678.92;;;21.58;54.49
63883;BME280;50047;50.596;30.466;2022-09-30T01:07:02;98684.21;;;21.44;54.59
63883;BME280;50047;50.596;30.466;2022-09-30T01:09:34;98686.75;;;21.24;54.65
63883;BME280;50047;50.596;30.466;2022-09-30T01:12:05;98678.42;;;21.04;55.08
63883;BME280;50047;50.596;30.466;2022-09-30T01:14:35;98678.21;;;21.20;56.07
63883;BME280;50047;50.596;30.466;2022-09-30T01:17:15;98672.11;;;21.56;55.77
63883;BME280;50047;50.596;30.466;2022-09-30T01:33:51;98690.92;;;20.87;55.51
63883;BME280;50047;50.596;30.466;2022-09-30T01:36:43;98688.75;;;21.10;56.47
63883;BME280;50047;50.596;30.466;2022-09-30T01:40:08;98695.14;;;21.43;55.87
63883;BME280;50047;50.596;30.466;2022-09-30T01:42:38;98691.66;;;21.48;55.41
63883;BME280;50047;50.596;30.466;2022-09-30T01:45:12;98685.02;;;21.21;55.52
63883;BME280;50047;50.596;30.466;2022-09-30T01:50:20;98688.61;;;20.71;56.20
63883;BME280;50047;50.596;30.466;2022-09-30T01:53:04;98685.37;;;20.43;56.73
63883;BME280;50047;50.596;30.466;2022-09-30T01:55:37;98685.30;;;20.54;57.92
63883;BME280;50047;50.596;30.466;2022-09-30T02:00:56;98688.89;;;20.96;57.12
63883;BME280;50047;50.596;30.466;2022-09-30T02:03:30;98689.23;;;20.84;57.00
63883;BME280;50047;50.596;30.466;2022-09-30T02:06:03;98694.96;;;20.68;56.76
63883;BME280;50047;50.596;30.466;2022-09-30T02:11:47;98697.39;;;20.17;57.96
63883;BME280;50047;50.596;30.466;2022-09-30T02:14:27;98695.27;;;20.46;58.57
63883;BME280;50047;50.596;30.466;2022-09-30T02:17:01;98692.50;;;20.81;58.11
63883;BME280;50047;50.596;30.466;2022-09-30T02:22:05;98691.16;;;20.87;56.89
63883;BME280;50047;50.596;30.466;2022-09-30T02:24:34;98695.31;;;20.70;56.83
63883;BME280;50047;50.596;30.466;2022-09-30T02:27:07;98694.20;;;20.48;57.00
63883;BME280;50047;50.596;30.466;2022-09-30T02:29:42;98694.84;;;20.32;57.39
63883;BME280;50047;50.596;30.466;2022-09-30T02:32:20;98699.52;;;19.98;58.35
63883;BME280;50047;50.596;30.466;2022-09-30T02:34:53;98704.00;;;20.13;59.42
63883;BME280;50047;50.596;30.466;2022-09-30T02:37:27;98704.00;;;20.49;59.00
63883;BME280;50047;50.596;30.466;2022-09-30T02:42:37;98699.67;;;20.63;57.90
63883;BME280;50047;50.596;30.466;2022-09-30T02:45:08;98699.73;;;20.52;57.46
63883;BME280;50047;50.596;30.466;2022-09-30T02:50:19;98703.64;;;20.06;58.42
63883;BME280;50047;50.596;30.466;2022-09-30T02:53:14;98695.05;;;20.25;59.23
63883;BME280;50047;50.596;30.466;2022-09-30T02:58:44;98699.58;;;20.82;57.91
63883;BME280;50047;50.596;30.466;2022-09-30T03:01:13;98699.73;;;20.65;57.74
63883;BME280;50047;50.596;30.466;2022-09-30T03:03:54;98697.65;;;20.51;57.71
63883;BME280;50047;50.596;30.466;2022-09-30T03:06:23;98703.36;;;20.20;58.12
63883;BME280;50047;50.596;30.466;2022-09-30T03:08:51;98700.88;;;20.32;59.11
63883;BME280;50047;50.596;30.466;2022-09-30T03:11:21;98704.11;;;20.64;58.98
63883;BME280;50047;50.596;30.466;2022-09-30T03:16:54;98707.91;;;20.64;58.62
63883;BME280;50047;50.596;30.466;2022-09-30T03:19:31;98708.79;;;20.52;58.46
63883;BME280;50047;50.596;30.466;2022-09-30T03:27:47;98714.35;;;20.41;59.53
63883;BME280;50047;50.596;30.466;2022-09-30T03:30:22;98717.95;;;20.69;59.15
63883;BME280;50047;50.596;30.466;2022-09-30T03:33:09;98716.64;;;20.70;58.88
63883;BME280;50047;50.596;30.466;2022-09-30T03:35:56;98717.27;;;20.59;58.68
63883;BME280;50047;50.596;30.466;2022-09-30T03:38:47;98710.85;;;20.44;58.31
63883;BME280;50047;50.596;30.466;2022-09-30T03:41:18;98720.10;;;20.20;58.93
63883;BME280;50047;50.596;30.466;2022-09-30T03:44:00;98728.52;;;20.32;59.85
63883;BME280;50047;50.596;30.466;2022-09-30T03:46:37;98730.48;;;20.60;59.66
63883;BME280;50047;50.596;30.466;2022-09-30T03:49:12;98733.48;;;20.71;59.09
63883;BME280;50047;50.596;30.466;2022-09-30T03:51:41;98737.03;;;20.67;58.68
63883;BME280;50047;50.596;30.466;2022-09-30T03:54:10;98738.73;;;20.53;58.45
63883;BME280;50047;50.596;30.466;2022-09-30T03:56:39;98745.77;;;20.37;58.20
63883;BME280;50047;50.596;30.466;2022-09-30T03:59:10;98747.38;;;20.08;58.96
63883;BME280;50047;50.596;30.466;2022-09-30T04:01:39;98751.89;;;20.21;60.14
63883;BME280;50047;50.596;30.466;2022-09-30T04:04:06;98751.23;;;20.53;59.94
63883;BME280;50047;50.596;30.466;2022-09-30T04:06:33;98751.42;;;20.70;59.51
63883;BME280;50047;50.596;30.466;2022-09-30T04:09:00;98746.64;;;20.68;59.33
63883;BME280;50047;50.596;30.466;2022-09-30T04:11:27;98750.36;;;20.62;59.21
63883;BME280;50047;50.596;30.466;2022-09-30T04:13:54;98754.47;;;20.42;59.66
63883;BME280;50047;50.596;30.466;2022-09-30T04:16:22;98754.38;;;20.61;60.36
63883;BME280;50047;50.596;30.466;2022-09-30T04:18:49;98756.50;;;21.00;60.11
63883;BME280;50047;50.596;30.466;2022-09-30T04:21:16;98762.79;;;21.21;59.41
63883;BME280;50047;50.596;30.466;2022-09-30T04:23:43;98765.60;;;21.19;58.99
63883;BME280;50047;50.596;30.466;2022-09-30T04:26:13;98764.95;;;21.08;58.68
63883;BME280;50047;50.596;30.466;2022-09-30T04:28:41;98769.98;;;20.91;59.18
63883;BME280;50047;50.596;30.466;2022-09-30T04:31:09;98775.27;;;21.11;60.05
63883;BME280;50047;50.596;30.466;2022-09-30T04:33:38;98782.79;;;21.53;59.49
63883;BME280;50047;50.596;30.466;2022-09-30T04:36:06;98788.64;;;21.75;58.68
63883;BME280;50047;50.596;30.466;2022-09-30T04:38:33;98792.19;;;21.76;58.33
63883;BME280;50047;50.596;30.466;2022-09-30T04:41:03;98786.98;;;21.63;58.11
63883;BME280;50047;50.596;30.466;2022-09-30T04:43:31;98791.40;;;21.48;58.54
63883;BME280;50047;50.596;30.466;2022-09-30T04:46:00;98790.46;;;21.64;59.21
63883;BME280;50047;50.596;30.466;2022-09-30T04:48:27;98789.64;;;21.92;58.97
63883;BME280;50047;50.596;30.466;2022-09-30T04:50:57;98790.42;;;22.13;58.21
63883;BME280;50047;50.596;30.466;2022-09-30T04:53:25;98785.64;;;22.09;57.90
63883;BME280;50047;50.596;30.466;2022-09-30T04:55:59;98788.73;;;21.99;57.66
63883;BME280;50047;50.596;30.466;2022-09-30T04:58:28;98792.60;;;21.79;57.78
63883;BME280;50047;50.596;30.466;2022-09-30T05:01:05;98796.08;;;21.64;58.22
63883;BME280;50047;50.596;30.466;2022-09-30T05:03:33;98800.88;;;21.86;58.99
63883;BME280;50047;50.596;30.466;2022-09-30T05:06:01;98806.64;;;22.28;58.39
63883;BME280;50047;50.596;30.466;2022-09-30T05:08:29;98810.20;;;22.49;57.82
63883;BME280;50047;50.596;30.466;2022-09-30T05:11:00;98815.05;;;22.60;57.07
63883;BME280;50047;50.596;30.466;2022-09-30T05:13:33;98819.30;;;22.55;56.93
63883;BME280;50047;50.596;30.466;2022-09-30T05:16:02;98822.20;;;22.43;56.71
63883;BME280;50047;50.596;30.466;2022-09-30T05:18:30;98822.89;;;22.19;57.15
63883;BME280;50047;50.596;30.466;2022-09-30T05:20:57;98826.48;;;22.41;58.07
63883;BME280;50047;50.596;30.466;2022-09-30T05:23:26;98829.48;;;22.80;57.45
63883;BME280;50047;50.596;30.466;2022-09-30T05:25:53;98828.70;;;23.04;56.81
63883;BME280;50047;50.596;30.466;2022-09-30T05:28:20;98824.73;;;23.11;56.33
63883;BME280;50047;50.596;30.466;2022-09-30T05:30:55;98824.27;;;23.15;56.01
63883;BME280;50047;50.596;30.466;2022-09-30T05:33:23;98828.17;;;23.15;55.72
63883;BME280;50047;50.596;30.466;2022-09-30T05:35:51;98828.14;;;23.08;55.88
63883;BME280;50047;50.596;30.466;2022-09-30T05:38:18;98830.36;;;23.33;56.02
63883;BME280;50047;50.596;30.466;2022-09-30T05:40:45;98827.16;;;23.82;55.72
63883;BME280;50047;50.596;30.466;2022-09-30T05:43:12;98835.27;;;24.08;54.76
63883;BME280;50047;50.596;30.466;2022-09-30T05:45:39;98841.66;;;24.15;54.39
63883;BME280;50047;50.596;30.466;2022-09-30T05:48:06;98844.42;;;24.14;54.05
63883;BME280;50047;50.596;30.466;2022-09-30T05:50:33;98846.03;;;24.03;54.01
63883;BME280;50047;50.596;30.466;2022-09-30T05:53:00;98844.36;;;23.88;53.82
63883;BME280;50047;50.596;30.466;2022-09-30T05:55:29;98843.23;;;23.68;54.30
63883;BME280;50047;50.596;30.466;2022-09-30T05:57:55;98848.18;;;23.95;54.77
63883;BME280;50047;50.596;30.466;2022-09-30T06:00:23;98857.58;;;24.31;54.42
63883;BME280;50047;50.596;30.466;2022-09-30T06:02:50;98862.73;;;24.54;53.71
63883;BME280;50047;50.596;30.466;2022-09-30T06:05:18;98873.80;;;24.55;53.13
63883;BME280;50047;50.596;30.466;2022-09-30T06:07:45;98875.38;;;24.46;53.05
63883;BME280;50047;50.596;30.466;2022-09-30T06:10:12;98878.98;;;24.33;53.01
63883;BME280;50047;50.596;30.466;2022-09-30T06:12:39;98882.53;;;24.19;52.89
63883;BME280;50047;50.596;30.466;2022-09-30T06:15:07;98888.43;;;23.92;53.34
63883;BME280;50047;50.596;30.466;2022-09-30T06:17:34;98888.00;;;24.05;54.10
63883;BME280;50047;50.596;30.466;2022-09-30T06:20:02;98890.29;;;24.58;53.90
63883;BME280;50047;50.596;30.466;2022-09-30T06:22:32;98887.78;;;24.95;52.75
63883;BME280;50047;50.596;30.466;2022-09-30T06:25:05;98886.11;;;25.07;51.75
63883;BME280;50047;50.596;30.466;2022-09-30T06:27:32;98886.70;;;24.98;51.54
63883;BME280;50047;50.596;30.466;2022-09-30T06:29:59;98884.26;;;25.03;51.17
63883;BME280;50047;50.596;30.466;2022-09-30T06:32:26;98880.48;;;25.07;50.88
63883;BME280;50047;50.596;30.466;2022-09-30T06:34:53;98874.66;;;25.15;50.73
63883;BME280;50047;50.596;30.466;2022-09-30T06:37:22;98874.78;;;25.22;50.58
63883;BME280;50047;50.596;30.466;2022-09-30T06:39:49;98873.38;;;25.78;50.88
63883;BME280;50047;50.596;30.466;2022-09-30T06:42:17;98880.27;;;26.44;49.79
63883;BME280;50047;50.596;30.466;2022-09-30T06:44:44;98885.05;;;26.78;48.60
63883;BME280;50047;50.596;30.466;2022-09-30T06:47:19;98890.65;;;26.87;48.17
63883;BME280;50047;50.596;30.466;2022-09-30T06:49:52;98886.99;;;26.92;47.45
63883;BME280;50047;50.596;30.466;2022-09-30T06:52:25;98884.95;;;26.77;47.69
63883;BME280;50047;50.596;30.466;2022-09-30T06:54:53;98886.75;;;26.64;47.64
63883;BME280;50047;50.596;30.466;2022-09-30T06:57:24;98888.79;;;26.42;47.85
63883;BME280;50047;50.596;30.466;2022-09-30T06:59:53;98896.15;;;26.09;48.60
63883;BME280;50047;50.596;30.466;2022-09-30T07:02:21;98901.64;;;25.81;48.61
63883;BME280;50047;50.596;30.466;2022-09-30T07:04:48;98902.39;;;25.59;49.19
63883;BME280;50047;50.596;30.466;2022-09-30T07:07:16;98906.52;;;25.33;49.86
63883;BME280;50047;50.596;30.466;2022-09-30T07:09:43;98911.16;;;25.56;50.37
63883;BME280;50047;50.596;30.466;2022-09-30T07:12:10;98914.94;;;26.02;49.99
63883;BME280;50047;50.596;30.466;2022-09-30T07:14:37;98914.91;;;26.34;49.25
63883;BME280;50047;50.596;30.466;2022-09-30T07:17:05;98918.00;;;26.45;48.22
63883;BME280;50047;50.596;30.466;2022-09-30T07:19:32;98917.65;;;26.57;48.04
63883;BME280;50047;50.596;30.466;2022-09-30T07:22:00;98922.05;;;26.54;47.86
63883;BME280;50047;50.596;30.466;2022-09-30T07:24:47;98920.97;;;26.38;47.93
63883;BME280;50047;50.596;30.466;2022-09-30T07:27:15;98921.60;;;26.19;48.13
63883;BME280;50047;50.596;30.466;2022-09-30T07:29:42;98924.77;;;25.98;48.28
63883;BME280;50047;50.596;30.466;2022-09-30T07:32:30;98933.29;;;25.79;48.56
63883;BME280;50047;50.596;30.466;2022-09-30T07:34:57;98931.81;;;25.65;48.81
63883;BME280;50047;50.596;30.466;2022-09-30T07:37:25;98936.87;;;25.46;49.39
63883;BME280;50047;50.596;30.466;2022-09-30T07:39:52;98936.23;;;25.66;50.20
63883;BME280;50047;50.596;30.466;2022-09-30T07:42:19;98937.20;;;26.19;49.55
63883;BME280;50047;50.596;30.466;2022-09-30T07:44:49;98938.09;;;26.53;48.53
63883;BME280;50047;50.596;30.466;2022-09-30T07:47:18;98941.13;;;26.67;48.25
63883;BME280;50047;50.596;30.466;2022-09-30T07:49:46;98940.34;;;26.70;47.77
63883;BME280;50047;50.596;30.466;2022-09-30T07:52:14;98940.95;;;26.66;47.61
63883;BME280;50047;50.596;30.466;2022-09-30T07:54:41;98941.55;;;26.74;47.32
63883;BME280;50047;50.596;30.466;2022-09-30T07:57:15;98939.77;;;26.72;47.18
63883;BME280;50047;50.596;30.466;2022-09-30T07:59:42;98936.42;;;26.29;48.12
63883;BME280;50047;50.596;30.466;2022-09-30T08:02:14;98936.52;;;25.89;48.68
63883;BME280;50047;50.596;30.466;2022-09-30T08:04:42;98943.57;;;25.66;49.17
63883;BME280;50047;50.596;30.466;2022-09-30T08:07:12;98945.71;;;25.49;49.88
63883;BME280;50047;50.596;30.466;2022-09-30T08:09:40;98946.84;;;25.71;50.45
63883;BME280;50047;50.596;30.466;2022-09-30T08:12:08;98949.29;;;26.14;50.09
63883;BME280;50047;50.596;30.466;2022-09-30T08:14:36;98952.45;;;26.37;49.33
63883;BME280;50047;50.596;30.466;2022-09-30T08:17:03;98957.16;;;26.44;49.05
63883;BME280;50047;50.596;30.466;2022-09-30T08:19:30;98958.98;;;26.38;48.64
63883;BME280;50047;50.596;30.466;2022-09-30T08:22:00;98962.80;;;26.25;48.64
63883;BME280;50047;50.596;30.466;2022-09-30T08:24:28;98964.81;;;26.14;48.72
63883;BME280;50047;50.596;30.466;2022-09-30T08:26:55;98963.33;;;25.97;48.72
63883;BME280;50047;50.596;30.466;2022-09-30T08:29:23;98968.05;;;25.74;49.16
63883;BME280;50047;50.596;30.466;2022-09-30T08:32:10;98970.98;;;25.66;49.20
63883;BME280;50047;50.596;30.466;2022-09-30T08:34:37;98971.75;;;25.54;49.75
63883;BME280;50047;50.596;30.466;2022-09-30T08:37:04;98975.31;;;25.76;50.51
63883;BME280;50047;50.596;30.466;2022-09-30T08:39:36;98977.89;;;26.18;49.96
63883;BME280;50047;50.596;30.466;2022-09-30T08:48:10;98986.80;;;26.23;48.66
63883;BME280;50047;50.596;30.466;2022-09-30T08:50:56;98987.02;;;26.04;48.90
63883;BME280;50047;50.596;30.466;2022-09-30T08:53:37;98986.24;;;25.81;49.01
63883;BME280;50047;50.596;30.466;2022-09-30T08:56:06;98990.39;;;25.66;49.17
63883;BME280;50047;50.596;30.466;2022-09-30T08:58:37;98987.62;;;25.59;49.24
63883;BME280;50047;50.596;30.466;2022-09-30T09:01:32;98987.08;;;25.46;49.54
63883;BME280;50047;50.596;30.466;2022-09-30T09:04:01;98987.80;;;25.38;49.60
63883;BME280;50047;50.596;30.466;2022-09-30T09:16:59;98993.52;;;26.26;49.05
63883;BME280;50047;50.596;30.466;2022-09-30T09:19:36;98998.17;;;26.17;49.15
63883;BME280;50047;50.596;30.466;2022-09-30T09:22:07;99000.97;;;26.10;48.97
63883;BME280;50047;50.596;30.466;2022-09-30T09:24:43;99002.93;;;25.99;49.02
63883;BME280;50047;50.596;30.466;2022-09-30T09:27:36;99000.88;;;25.90;49.21
63883;BME280;50047;50.596;30.466;2022-09-30T09:30:11;99002.64;;;25.88;49.12
63883;BME280;50047;50.596;30.466;2022-09-30T09:32:41;99001.54;;;25.88;49.11
63883;BME280;50047;50.596;30.466;2022-09-30T09:37:49;99000.52;;;26.18;50.08
63883;BME280;50047;50.596;30.466;2022-09-30T09:46:26;99004.52;;;26.62;48.37
63883;BME280;50047;50.596;30.466;2022-09-30T09:51:47;99006.71;;;26.08;49.06
63883;BME280;50047;50.596;30.466;2022-09-30T09:54:18;99005.44;;;25.96;48.88
63883;BME280;50047;50.596;30.466;2022-09-30T09:56:46;99008.55;;;25.78;49.29
63883;BME280;50047;50.596;30.466;2022-09-30T09:59:18;99008.91;;;25.62;49.57
63883;BME280;50047;50.596;30.466;2022-09-30T10:01:51;99009.55;;;25.58;49.79
63883;BME280;50047;50.596;30.466;2022-09-30T10:04:20;99009.34;;;25.59;49.62
63883;BME280;50047;50.596;30.466;2022-09-30T10:07:01;99011.70;;;25.50;50.12
63883;BME280;50047;50.596;30.466;2022-09-30T10:09:41;99012.13;;;25.92;50.47
63883;BME280;50047;50.596;30.466;2022-09-30T10:14:50;99015.52;;;26.70;49.06
63883;BME280;50047;50.596;30.466;2022-09-30T10:17:21;99018.52;;;26.83;48.33
63883;BME280;50047;50.596;30.466;2022-09-30T10:22:42;99021.98;;;26.74;47.93
63883;BME280;50047;50.596;30.466;2022-09-30T10:25:18;99021.70;;;26.73;48.00
63883;BME280;50047;50.596;30.466;2022-09-30T10:27:57;99022.62;;;26.69;47.88
63883;BME280;50047;50.596;30.466;2022-09-30T10:33:22;99019.63;;;26.49;47.92
63883;BME280;50047;50.596;30.466;2022-09-30T10:36:07;99021.13;;;26.43;48.00
63883;BME280;50047;50.596;30.466;2022-09-30T10:38:43;99024.70;;;26.42;48.16
63883;BME280;50047;50.596;30.466;2022-09-30T10:41:11;99027.00;;;26.45;48.06
63883;BME280;50047;50.596;30.466;2022-09-30T10:43:42;99025.92;;;26.37;48.69
63883;BME280;50047;50.596;30.466;2022-09-30T10:46:10;99029.55;;;26.77;49.06
63883;BME280;50047;50.596;30.466;2022-09-30T10:48:54;99026.75;;;27.36;48.13
63883;BME280;50047;50.596;30.466;2022-09-30T10:51:27;99027.89;;;27.72;47.71
63883;BME280;50047;50.596;30.466;2022-09-30T10:53:55;99027.23;;;27.75;46.89
63883;BME280;50047;50.596;30.466;2022-09-30T10:59:02;99034.29;;;27.44;46.80
63883;BME280;50047;50.596;30.466;2022-09-30T11:01:42;99034.45;;;27.22;46.92
63883;BME280;50047;50.596;30.466;2022-09-30T11:06:47;99035.22;;;27.22;46.80
63883;BME280;50047;50.596;30.466;2022-09-30T11:09:21;99038.80;;;27.13;46.92
63883;BME280;50047;50.596;30.466;2022-09-30T11:11:56;99041.34;;;27.11;46.86
63883;BME280;50047;50.596;30.466;2022-09-30T11:14:34;99040.93;;;27.14;46.83
63883;BME280;50047;50.596;30.466;2022-09-30T11:17:21;99038.05;;;27.29;46.50
63883;BME280;50047;50.596;30.466;2022-09-30T11:20:12;99036.83;;;27.32;46.66
63883;BME280;50047;50.596;30.466;2022-09-30T11:25:18;99047.78;;;27.51;46.45
63883;BME280;50047;50.596;30.466;2022-09-30T11:36:42;99053.52;;;27.99;45.73
63883;BME280;50047;50.596;30.466;2022-09-30T11:42:29;99051.14;;;28.09;45.42
63883;BME280;50047;50.596;30.466;2022-09-30T11:45:08;99056.55;;;28.09;45.42
63883;BME280;50047;50.596;30.466;2022-09-30T11:56:37;99063.98;;;27.83;45.87
63883;BME280;50047;50.596;30.466;2022-09-30T11:59:27;99068.42;;;27.62;46.32
63883;BME280;50047;50.596;30.466;2022-09-30T12:01:59;99071.68;;;27.42;46.42
63883;BME280;50047;50.596;30.466;2022-09-30T12:04:36;99078.39;;;27.27;46.78
63883;BME280;50047;50.596;30.466;2022-09-30T12:07:11;99076.86;;;27.25;46.98
63883;BME280;50047;50.596;30.466;2022-09-30T12:10:04;99077.20;;;27.26;47.04
63883;BME280;50047;50.596;30.466;2022-09-30T12:12:33;99078.61;;;27.36;46.90
63883;BME280;50047;50.596;30.466;2022-09-30T12:15:05;99080.52;;;27.48;46.78
63883;BME280;50047;50.596;30.466;2022-09-30T12:17:37;99079.31;;;27.50;46.85
63883;BME280;50047;50.596;30.466;2022-09-30T12:22:44;99081.77;;;27.38;46.75
63883;BME280;50047;50.596;30.466;2022-09-30T12:25:20;99084.70;;;27.39;46.89
63883;BME280;50047;50.596;30.466;2022-09-30T12:28:16;99086.60;;;27.42;46.91
63883;BME280;50047;50.596;30.466;2022-09-30T12:31:14;99084.41;;;27.43;46.68
63883;BME280;50047;50.596;30.466;2022-09-30T12:34:17;99086.27;;;27.18;47.20
63883;BME280;50047;50.596;30.466;2022-09-30T12:37:08;99087.14;;;27.21;47.11
63883;BME280;50047;50.596;30.466;2022-09-30T12:42:35;99089.88;;;27.17;47.11
63883;BME280;50047;50.596;30.466;2022-09-30T12:48:18;99097.44;;;27.09;47.25
63883;BME280;50047;50.596;30.466;2022-09-30T12:50:50;99093.92;;;27.13;47.18
63883;BME280;50047;50.596;30.466;2022-09-30T12:55:52;99090.48;;;27.34;48.06
63883;BME280;50047;50.596;30.466;2022-09-30T12:58:25;99090.84;;;27.84;47.56
63883;BME280;50047;50.596;30.466;2022-09-30T13:01:03;99092.39;;;28.02;46.89
63883;BME280;50047;50.596;30.466;2022-09-30T13:03:48;99096.09;;;28.03;46.31
63883;BME280;50047;50.596;30.466;2022-09-30T13:06:17;99092.98;;;28.00;46.21
63883;BME280;50047;50.596;30.466;2022-09-30T13:14:16;99100.20;;;27.33;46.97
63883;BME280;50047;50.596;30.466;2022-09-30T13:35:35;99104.40;;;26.91;47.42
63883;BME280;50047;50.596;30.466;2022-09-30T13:38:19;99105.14;;;26.77;47.76
63883;BME280;50047;50.596;30.466;2022-09-30T13:40:58;99104.94;;;26.69;48.18
63883;BME280;50047;50.596;30.466;2022-09-30T13:46:34;99111.59;;;27.58;48.18
63883;BME280;50047;50.596;30.466;2022-09-30T13:52:19;99120.61;;;27.76;47.01
63883;BME280;50047;50.596;30.466;2022-09-30T13:54:49;99123.86;;;27.70;46.88
63883;BME280;50047;50.596;30.466;2022-09-30T13:57:22;99119.86;;;27.63;46.81
63883;BME280;50047;50.596;30.466;2022-09-30T14:00:09;99121.66;;;27.38;47.18
63883;BME280;50047;50.596;30.466;2022-09-30T14:02:45;99120.33;;;27.25;47.28
63883;BME280;50047;50.596;30.466;2022-09-30T14:05:40;99122.67;;;27.08;47.66
63883;BME280;50047;50.596;30.466;2022-09-30T14:19:44;99121.55;;;26.44;49.12
63883;BME280;50047;50.596;30.466;2022-09-30T14:22:17;99125.25;;;26.72;49.62
63883;BME280;50047;50.596;30.466;2022-09-30T14:24:48;99124.48;;;27.05;49.45
63883;BME280;50047;50.596;30.466;2022-09-30T14:30:20;99128.19;;;27.32;48.17
63883;BME280;50047;50.596;30.466;2022-09-30T14:33:01;99128.77;;;27.10;48.29
63883;BME280;50047;50.596;30.466;2022-09-30T14:35:31;99122.94;;;26.83;48.56
63883;BME280;50047;50.596;30.466;2022-09-30T14:38:12;99126.09;;;26.65;48.82
63883;BME280;50047;50.596;30.466;2022-09-30T14:40:48;99125.71;;;26.57;48.80
63883;BME280;50047;50.596;30.466;2022-09-30T14:43:23;99124.40;;;26.49;49.04
63883;BME280;50047;50.596;30.466;2022-09-30T14:45:55;99122.09;;;26.32;48.98
63883;BME280;50047;50.596;30.466;2022-09-30T14:48:26;99125.33;;;26.16;49.35
63883;BME280;50047;50.596;30.466;2022-09-30T14:53:33;99131.80;;;26.15;50.79
63883;BME280;50047;50.596;30.466;2022-09-30T14:56:02;99129.50;;;26.49;50.48
63883;BME280;50047;50.596;30.466;2022-09-30T14:58:41;99133.35;;;26.65;50.12
63883;BME280;50047;50.596;30.466;2022-09-30T15:01:14;99133.45;;;26.65;49.44
63883;BME280;50047;50.596;30.466;2022-09-30T15:03:47;99136.20;;;26.50;49.40
63883;BME280;50047;50.596;30.466;2022-09-30T15:06:32;99139.45;;;26.34;49.54
63883;BME280;50047;50.596;30.466;2022-09-30T15:09:07;99140.33;;;26.06;49.95
63883;BME280;50047;50.596;30.466;2022-09-30T15:11:44;99144.14;;;25.90;50.10
63883;BME280;50047;50.596;30.466;2022-09-30T15:16:52;99152.30;;;25.43;51.18
63883;BME280;50047;50.596;30.466;2022-09-30T15:19:33;99151.42;;;25.68;52.09
63883;BME280;50047;50.596;30.466;2022-09-30T15:22:04;99156.27;;;26.08;51.37
63883;BME280;50047;50.596;30.466;2022-09-30T15:24:34;99159.02;;;26.22;50.87
63883;BME280;50047;50.596;30.466;2022-09-30T15:27:02;99159.08;;;26.18;50.65
63883;BME280;50047;50.596;30.466;2022-09-30T15:29:30;99162.70;;;25.98;50.66
63883;BME280;50047;50.596;30.466;2022-09-30T15:32:13;99163.89;;;25.74;50.81
63883;BME280;50047;50.596;30.466;2022-09-30T15:34:41;99171.61;;;25.50;51.21
63883;BME280;50047;50.596;30.466;2022-09-30T15:37:20;99175.69;;;25.26;51.37
63883;BME280;50047;50.596;30.466;2022-09-30T15:39:49;99179.60;;;25.07;51.82
63883;BME280;50047;50.596;30.466;2022-09-30T15:42:44;99179.66;;;25.28;52.82
63883;BME280;50047;50.596;30.466;2022-09-30T15:50:56;99177.92;;;25.47;51.90
63883;BME280;50047;50.596;30.466;2022-09-30T15:55:57;99180.48;;;25.00;51.94
63883;BME280;50047;50.596;30.466;2022-09-30T16:01:14;99183.48;;;24.51;52.79
63883;BME280;50047;50.596;30.466;2022-09-30T16:03:56;99190.55;;;24.63;54.15
63883;BME280;50047;50.596;30.466;2022-09-30T16:06:51;99189.50;;;24.94;53.71
63883;BME280;50047;50.596;30.466;2022-09-30T16:12:08;99187.23;;;25.30;52.47
63883;BME280;50047;50.596;30.466;2022-09-30T16:14:52;99189.18;;;25.15;52.32
63883;BME280;50047;50.596;30.466;2022-09-30T16:17:23;99198.73;;;24.89;52.92
63883;BME280;50047;50.596;30.466;2022-09-30T16:19:55;99194.82;;;24.54;53.83
63883;BME280;50047;50.596;30.466;2022-09-30T16:30:26;99196.85;;;25.08;53.42